Time;durP1;ratioP1;P1;durP2;ratioP2;P2;SDS_P1;SDS_P2;PMS_P1;PMS_P2;Temp;Humidity;BMP_temperature;BMP_pressure;BME280_temperature;BME280_humidity;BME280_pressure;Samples;Min_cycle;Max_cycle;Signal;HPM_P1;HPM_P2
2022/11/21 00:01:18;;;;;;;;;14.67;12.67;;;;;;;;114920;1203;24843;-55
2022/11/21 00:03:47;;;;;;;;;6.00;6.00;;;;;;;;114942;1200;25129;-55
2022/11/21 00:06:16;;;;;;;;;10.00;9.00;;;;;;;;114897;1196;25076;-55
2022/11/21 00:08:45;;;;;;;;;6.00;6.00;;;;;;;;114926;1200;25532;-56
2022/11/21 00:11:14;;;;;;;;;9.00;7.00;;;;;;;;114941;1201;25171;-55
2022/11/21 00:13:42;;;;;;;;;10.00;8.00;;;;;;;;114964;1207;25067;-57
2022/11/21 00:16:13;;;;;;;;;10.00;9.00;;;;;;;;114932;1203;25233;-62
2022/11/21 00:18:42;;;;;;;;;9.67;9.00;;;;;;;;114890;1200;25057;-56
2022/11/21 00:21:16;;;;;;;;;11.00;10.00;;;;;;;;114892;1200;24986;-56
2022/11/21 00:23:45;;;;;;;;;10.00;10.00;;;;;;;;114953;1196;24967;-56
2022/11/21 00:26:15;;;;;;;;;10.00;8.00;;;;;;;;114890;1200;25557;-60
2022/11/21 00:28:44;;;;;;;;;11.00;9.33;;;;;;;;114868;1200;25073;-56
2022/11/21 00:31:21;;;;;;;;;11.33;11.33;;;;;;;;114917;1200;25094;-55
2022/11/21 00:33:49;;;;;;;;;12.50;9.50;;;;;;;;114853;1195;25344;-56
2022/11/21 00:36:17;;;;;;;;;11.00;10.00;;;;;;;;114891;1199;24910;-56
2022/11/21 00:38:46;;;;;;;;;11.00;9.00;;;;;;;;114854;1200;25438;-56
2022/11/21 00:41:14;;;;;;;;;7.00;6.00;;;;;;;;114914;1204;26753;-54
2022/11/21 00:43:43;;;;;;;;;9.00;6.00;;;;;;;;114863;1204;25709;-56
2022/11/21 00:46:11;;;;;;;;;13.00;10.00;;;;;;;;114854;1204;25624;-56
2022/11/21 00:48:39;;;;;;;;;11.00;11.00;;;;;;;;114926;1205;25561;-56
2022/11/21 00:51:08;;;;;;;;;9.50;9.50;;;;;;;;114895;1205;25165;-56
2022/11/21 00:53:36;;;;;;;;;11.00;10.00;;;;;;;;114925;1200;25091;-56
2022/11/21 00:56:05;;;;;;;;;14.00;11.00;;;;;;;;114862;1207;24996;-56
2022/11/21 00:58:33;;;;;;;;;7.50;7.50;;;;;;;;114880;1197;25680;-58
2022/11/21 01:01:10;;;;;;;;;10.00;7.00;;;;;;;;114830;1206;24753;-55
2022/11/21 01:03:39;;;;;;;;;13.00;10.00;;;;;;;;114813;1206;25539;-56
2022/11/21 01:06:10;;;;;;;;;12.00;9.00;;;;;;;;114888;1196;24876;-55
2022/11/21 01:08:41;;;;;;;;;9.00;6.00;;;;;;;;114941;1202;25786;-55
2022/11/21 01:11:16;;;;;;;;;7.00;7.00;;;;;;;;114889;1208;24989;-56
2022/11/21 01:13:46;;;;;;;;;10.00;8.00;;;;;;;;114934;1200;25196;-56
2022/11/21 01:16:20;;;;;;;;;11.50;8.00;;;;;;;;114900;1208;25451;-56
2022/11/21 01:18:48;;;;;;;;;12.67;12.33;;;;;;;;114904;1200;25575;-55
2022/11/21 01:21:21;;;;;;;;;15.00;9.00;;;;;;;;114972;1197;25417;-56
2022/11/21 01:23:51;;;;;;;;;17.50;10.00;;;;;;;;114923;1203;24889;-56
2022/11/21 01:26:22;;;;;;;;;14.00;10.00;;;;;;;;114873;1208;25449;-56
2022/11/21 01:28:51;;;;;;;;;8.00;8.00;;;;;;;;114870;1203;25497;-56
2022/11/21 01:31:22;;;;;;;;;15.00;11.00;;;;;;;;114904;1197;25303;-56
2022/11/21 01:33:51;;;;;;;;;12.50;9.00;;;;;;;;114819;1206;25569;-61
2022/11/21 01:36:22;;;;;;;;;8.00;7.00;;;;;;;;114853;1203;25468;-58
2022/11/21 01:38:52;;;;;;;;;9.00;9.00;;;;;;;;114899;1199;24887;-57
2022/11/21 01:41:23;;;;;;;;;8.50;8.50;;;;;;;;114868;1203;25762;-55
2022/11/21 01:43:52;;;;;;;;;9.00;9.00;;;;;;;;114867;1203;24850;-56
2022/11/21 01:46:21;;;;;;;;;13.00;12.00;;;;;;;;114865;1200;25678;-56
2022/11/21 01:48:56;;;;;;;;;11.00;9.50;;;;;;;;114956;1200;25633;-56
2022/11/21 01:51:51;;;;;;;;;10.00;8.50;;;;;;;;114885;1199;26238;-56
2022/11/21 01:54:23;;;;;;;;;11.00;11.00;;;;;;;;114892;1200;25399;-56
2022/11/21 01:57:04;;;;;;;;;11.00;8.50;;;;;;;;114893;1196;24998;-56
2022/11/21 01:59:44;;;;;;;;;10.50;9.00;;;;;;;;114902;1203;25755;-56
2022/11/21 02:02:16;;;;;;;;;13.00;9.00;;;;;;;;114860;1200;25352;-56
2022/11/21 02:04:46;;;;;;;;;13.50;9.50;;;;;;;;114852;1206;25661;-56
2022/11/21 02:07:17;;;;;;;;;12.00;10.00;;;;;;;;114901;1204;25726;-57
2022/11/21 02:09:51;;;;;;;;;12.67;10.33;;;;;;;;114871;1202;24706;-56
2022/11/21 02:12:33;;;;;;;;;13.00;12.00;;;;;;;;114869;1200;24717;-56
2022/11/21 02:15:04;;;;;;;;;16.00;12.00;;;;;;;;114875;1203;24947;-56
2022/11/21 02:17:32;;;;;;;;;12.00;9.00;;;;;;;;114969;1200;25199;-55
2022/11/21 02:20:04;;;;;;;;;16.00;12.00;;;;;;;;114944;1193;25638;-56
2022/11/21 02:22:41;;;;;;;;;12.50;9.00;;;;;;;;114909;1200;24962;-56
2022/11/21 02:25:21;;;;;;;;;9.00;8.00;;;;;;;;114915;1200;25160;-57
2022/11/21 02:27:54;;;;;;;;;15.00;13.00;;;;;;;;114861;1208;25068;-56
2022/11/21 02:30:23;;;;;;;;;10.00;9.50;;;;;;;;114888;1206;25075;-56
2022/11/21 02:32:51;;;;;;;;;12.50;11.00;;;;;;;;114902;1208;24786;-56
2022/11/21 02:35:19;;;;;;;;;12.00;9.00;;;;;;;;114877;1203;25706;-56
2022/11/21 02:37:56;;;;;;;;;9.00;8.00;;;;;;;;114895;1199;25383;-56
2022/11/21 02:40:28;;;;;;;;;13.00;9.00;;;;;;;;114863;1200;25155;-56
2022/11/21 02:43:09;;;;;;;;;8.50;7.50;;;;;;;;114907;1200;25423;-57
2022/11/21 02:45:40;;;;;;;;;11.00;8.00;;;;;;;;114886;1203;25009;-56
2022/11/21 02:48:09;;;;;;;;;9.33;8.33;;;;;;;;114872;1199;25514;-56
2022/11/21 02:50:40;;;;;;;;;11.50;8.50;;;;;;;;114824;1203;25036;-56
2022/11/21 02:53:11;;;;;;;;;9.00;9.00;;;;;;;;114838;1201;25058;-56
2022/11/21 02:55:40;;;;;;;;;11.00;9.50;;;;;;;;114938;1200;25638;-56
2022/11/21 02:58:08;;;;;;;;;10.00;10.00;;;;;;;;114923;1204;25393;-57
2022/11/21 03:00:39;;;;;;;;;7.33;6.00;;;;;;;;114887;1200;25716;-56
2022/11/21 03:03:07;;;;;;;;;15.00;12.00;;;;;;;;114853;1200;24924;-56
2022/11/21 03:05:37;;;;;;;;;9.50;8.50;;;;;;;;114834;1197;24934;-56
2022/11/21 03:08:06;;;;;;;;;9.00;8.00;;;;;;;;114862;1203;26246;-56
2022/11/21 03:10:35;;;;;;;;;12.00;8.00;;;;;;;;114891;1200;24763;-54
2022/11/21 03:13:03;;;;;;;;;9.50;9.00;;;;;;;;114879;1194;25257;-56
2022/11/21 03:15:33;;;;;;;;;13.00;9.50;;;;;;;;114894;1207;25674;-55
2022/11/21 03:18:02;;;;;;;;;9.00;7.00;;;;;;;;114918;1206;25294;-55
2022/11/21 03:20:32;;;;;;;;;14.00;12.00;;;;;;;;114877;1200;25044;-55
2022/11/21 03:23:00;;;;;;;;;11.50;10.50;;;;;;;;114781;1200;24934;-55
2022/11/21 03:25:29;;;;;;;;;10.00;9.00;;;;;;;;114886;1200;25497;-55
2022/11/21 03:27:57;;;;;;;;;12.00;9.00;;;;;;;;114849;1200;25200;-56
2022/11/21 03:30:26;;;;;;;;;13.00;10.00;;;;;;;;114889;1203;25682;-55
2022/11/21 03:32:55;;;;;;;;;6.00;6.00;;;;;;;;114965;1203;25110;-55
2022/11/21 03:35:24;;;;;;;;;10.50;8.50;;;;;;;;114928;1200;24906;-55
2022/11/21 03:37:53;;;;;;;;;11.00;9.00;;;;;;;;114973;1203;24821;-54
2022/11/21 03:40:21;;;;;;;;;8.00;8.00;;;;;;;;114972;1203;25940;-55
2022/11/21 03:42:49;;;;;;;;;7.00;7.00;;;;;;;;114927;1200;25527;-55
2022/11/21 03:45:18;;;;;;;;;8.00;7.50;;;;;;;;114927;1208;24760;-55
2022/11/21 03:47:46;;;;;;;;;9.00;8.00;;;;;;;;114850;1208;25025;-55
2022/11/21 03:50:17;;;;;;;;;6.00;6.00;;;;;;;;114917;1203;24975;-55
2022/11/21 03:52:46;;;;;;;;;11.67;8.67;;;;;;;;114899;1203;25613;-55
2022/11/21 03:55:14;;;;;;;;;10.50;9.00;;;;;;;;114950;1203;25083;-55
2022/11/21 03:57:42;;;;;;;;;8.00;5.00;;;;;;;;114915;1201;25280;-55
2022/11/21 04:00:12;;;;;;;;;13.00;9.00;;;;;;;;114919;1200;25459;-55
2022/11/21 04:02:40;;;;;;;;;13.00;9.00;;;;;;;;114934;1202;25685;-55
2022/11/21 04:05:09;;;;;;;;;9.00;8.00;;;;;;;;114938;1200;26134;-57
2022/11/21 04:07:37;;;;;;;;;7.00;6.00;;;;;;;;114910;1200;25249;-56
2022/11/21 04:10:06;;;;;;;;;8.50;7.50;;;;;;;;114966;1200;25450;-57
2022/11/21 04:12:34;;;;;;;;;7.50;7.00;;;;;;;;114930;1206;24923;-57
2022/11/21 04:15:04;;;;;;;;;8.00;6.00;;;;;;;;114953;1203;24977;-57
2022/11/21 04:17:40;;;;;;;;;8.00;8.00;;;;;;;;114938;1207;25689;-57
2022/11/21 04:20:09;;;;;;;;;18.00;12.00;;;;;;;;114947;1208;25087;-57
2022/11/21 04:22:37;;;;;;;;;13.00;10.00;;;;;;;;114905;1199;24884;-56
2022/11/21 04:25:06;;;;;;;;;9.33;9.00;;;;;;;;114931;1203;25508;-57
2022/11/21 04:27:35;;;;;;;;;8.00;8.00;;;;;;;;114935;1208;25398;-56
2022/11/21 04:30:04;;;;;;;;;9.50;8.50;;;;;;;;114875;1203;25282;-58
2022/11/21 04:32:32;;;;;;;;;13.00;9.50;;;;;;;;114948;1199;25082;-57
2022/11/21 04:35:01;;;;;;;;;12.50;8.50;;;;;;;;114922;1207;24683;-62
2022/11/21 04:37:29;;;;;;;;;8.00;8.00;;;;;;;;114905;1204;25203;-65
2022/11/21 04:39:58;;;;;;;;;11.00;9.50;;;;;;;;114873;1208;25137;-62
2022/11/21 04:42:26;;;;;;;;;12.00;10.00;;;;;;;;114958;1200;24945;-63
2022/11/21 04:44:55;;;;;;;;;10.00;7.00;;;;;;;;114877;1199;24903;-55
2022/11/21 04:47:23;;;;;;;;;10.00;8.00;;;;;;;;114923;1202;26447;-62
2022/11/21 04:49:52;;;;;;;;;11.00;7.00;;;;;;;;114832;1203;25604;-63
2022/11/21 04:52:20;;;;;;;;;7.00;7.00;;;;;;;;114977;1204;26050;-63
2022/11/21 04:54:48;;;;;;;;;6.00;6.00;;;;;;;;114907;1198;24781;-62
2022/11/21 04:57:17;;;;;;;;;10.00;8.50;;;;;;;;114918;1200;24934;-66
2022/11/21 04:59:45;;;;;;;;;7.00;7.00;;;;;;;;114836;1203;24790;-62
2022/11/21 05:02:14;;;;;;;;;5.00;5.00;;;;;;;;114905;1200;25053;-65
2022/11/21 05:04:42;;;;;;;;;8.00;6.75;;;;;;;;114898;1206;24895;-63
2022/11/21 05:07:13;;;;;;;;;7.00;5.00;;;;;;;;114835;1208;24743;-60
2022/11/21 05:09:41;;;;;;;;;7.00;7.00;;;;;;;;114821;1200;25081;-62
2022/11/21 05:14:57;;;;;;;;;5.00;4.00;;;;;;;;117043;1200;25329;-64
2022/11/21 05:17:27;;;;;;;;;7.67;6.67;;;;;;;;116750;1208;25389;-63
2022/11/21 05:19:55;;;;;;;;;7.00;5.00;;;;;;;;116765;1208;25168;-62
2022/11/21 05:22:24;;;;;;;;;8.50;6.00;;;;;;;;115756;1200;25404;-64
2022/11/21 05:24:52;;;;;;;;;6.00;6.00;;;;;;;;116155;1204;25576;-62
2022/11/21 05:27:21;;;;;;;;;10.00;9.00;;;;;;;;114841;1203;25647;-62
2022/11/21 05:29:49;;;;;;;;;7.50;5.50;;;;;;;;114837;1200;26171;-62
2022/11/21 05:32:18;;;;;;;;;9.00;6.00;;;;;;;;114902;1208;25933;-62
2022/11/21 05:34:46;;;;;;;;;7.33;6.00;;;;;;;;114935;1204;25570;-62
2022/11/21 05:37:14;;;;;;;;;8.33;6.00;;;;;;;;114845;1200;25490;-61
2022/11/21 05:39:43;;;;;;;;;6.50;5.50;;;;;;;;114900;1206;25514;-61
2022/11/21 05:42:11;;;;;;;;;6.00;4.00;;;;;;;;114903;1203;24945;-61
2022/11/21 05:44:40;;;;;;;;;6.50;5.50;;;;;;;;114882;1197;24710;-62
2022/11/21 05:47:08;;;;;;;;;6.50;6.50;;;;;;;;114915;1203;25103;-62
2022/11/21 05:49:36;;;;;;;;;6.00;6.00;;;;;;;;114860;1193;25542;-58
2022/11/21 05:52:05;;;;;;;;;9.00;6.00;;;;;;;;114887;1193;24743;-57
2022/11/21 05:54:33;;;;;;;;;6.50;6.00;;;;;;;;114886;1203;25243;-55
2022/11/21 05:57:02;;;;;;;;;6.50;5.00;;;;;;;;114890;1200;25378;-56
2022/11/21 05:59:30;;;;;;;;;7.00;7.00;;;;;;;;114940;1203;25408;-57
2022/11/21 06:04:45;;;;;;;;;6.00;6.00;;;;;;;;114857;1200;25485;-58
2022/11/21 06:07:14;;;;;;;;;6.50;6.50;;;;;;;;114792;1208;25093;-57
2022/11/21 06:09:42;;;;;;;;;9.00;5.00;;;;;;;;114949;1197;25077;-59
2022/11/21 06:12:10;;;;;;;;;7.50;5.00;;;;;;;;114883;1206;25086;-57
2022/11/21 06:14:39;;;;;;;;;6.00;6.00;;;;;;;;114871;1206;25127;-57
2022/11/21 06:17:07;;;;;;;;;7.00;7.00;;;;;;;;114788;1207;24715;-57
2022/11/21 06:19:36;;;;;;;;;5.67;5.67;;;;;;;;114831;1206;25251;-57
2022/11/21 06:22:04;;;;;;;;;6.33;6.33;;;;;;;;114860;1200;24842;-56
2022/11/21 06:24:32;;;;;;;;;6.00;5.50;;;;;;;;114859;1207;25156;-58
2022/11/21 06:27:01;;;;;;;;;6.00;6.00;;;;;;;;114931;1200;25809;-58
2022/11/21 06:29:29;;;;;;;;;6.33;4.33;;;;;;;;114827;1203;26202;-58
2022/11/21 06:31:58;;;;;;;;;5.33;4.67;;;;;;;;114828;1203;25643;-61
2022/11/21 06:34:26;;;;;;;;;4.50;4.50;;;;;;;;115043;1203;25166;-57
2022/11/21 06:36:55;;;;;;;;;6.50;6.00;;;;;;;;114896;1200;24964;-62
2022/11/21 06:39:23;;;;;;;;;5.00;5.00;;;;;;;;114825;1200;25033;-62
2022/11/21 06:41:52;;;;;;;;;8.00;7.00;;;;;;;;114868;1208;25133;-65
2022/11/21 06:44:20;;;;;;;;;7.50;6.00;;;;;;;;114869;1204;24822;-59
2022/11/21 06:46:49;;;;;;;;;6.00;5.00;;;;;;;;115008;1208;25032;-60
2022/11/21 06:49:18;;;;;;;;;8.00;7.00;;;;;;;;114946;1203;24764;-59
2022/11/21 06:51:47;;;;;;;;;9.33;5.67;;;;;;;;114904;1203;25398;-60
2022/11/21 06:54:15;;;;;;;;;6.00;5.00;;;;;;;;114925;1208;25283;-61
2022/11/21 06:56:44;;;;;;;;;5.50;4.00;;;;;;;;114898;1203;25354;-60
2022/11/21 06:59:12;;;;;;;;;10.50;6.00;;;;;;;;114923;1203;25863;-60
2022/11/21 07:01:41;;;;;;;;;5.50;5.00;;;;;;;;114847;1203;25012;-59
2022/11/21 07:04:09;;;;;;;;;8.50;5.00;;;;;;;;114928;1202;25116;-60
2022/11/21 07:06:38;;;;;;;;;8.00;5.00;;;;;;;;114911;1203;25266;-59
2022/11/21 07:09:06;;;;;;;;;4.00;4.00;;;;;;;;114827;1200;25020;-61
2022/11/21 07:13:20;;;;;;;;;5.00;4.00;;;;;;;;114837;1206;25622;-60
2022/11/21 07:14:43;;;;;;;;;6.50;5.50;;;;;;;;114937;1197;24776;-61
2022/11/21 07:17:12;;;;;;;;;7.00;5.00;;;;;;;;114922;1199;25517;-60
2022/11/21 07:19:41;;;;;;;;;5.67;5.00;;;;;;;;114888;1200;26472;-59
2022/11/21 07:22:09;;;;;;;;;7.00;6.00;;;;;;;;114904;1203;26203;-59
2022/11/21 07:24:38;;;;;;;;;7.00;6.00;;;;;;;;114918;1196;24836;-62
2022/11/21 07:27:06;;;;;;;;;2.00;2.00;;;;;;;;114927;1203;25213;-59
2022/11/21 07:29:34;;;;;;;;;6.50;4.00;;;;;;;;114898;1200;25699;-61
2022/11/21 07:32:03;;;;;;;;;5.50;5.00;;;;;;;;114921;1204;24871;-60
2022/11/21 07:34:31;;;;;;;;;3.00;3.00;;;;;;;;114950;1193;24944;-61
2022/11/21 07:37:00;;;;;;;;;7.33;6.00;;;;;;;;114907;1204;25335;-61
2022/11/21 07:39:32;;;;;;;;;6.00;4.00;;;;;;;;114891;1203;25682;-60
2022/11/21 07:42:00;;;;;;;;;7.00;3.33;;;;;;;;114928;1208;25146;-61
2022/11/21 07:44:28;;;;;;;;;4.00;4.00;;;;;;;;114906;1203;25722;-61
2022/11/21 07:46:57;;;;;;;;;4.00;4.00;;;;;;;;114897;1200;25132;-60
2022/11/21 07:49:25;;;;;;;;;5.50;3.50;;;;;;;;114864;1206;25710;-61
2022/11/21 07:51:54;;;;;;;;;3.00;3.00;;;;;;;;114902;1208;24730;-59
2022/11/21 07:54:22;;;;;;;;;3.50;3.00;;;;;;;;114876;1195;25840;-58
2022/11/21 07:56:51;;;;;;;;;6.00;4.00;;;;;;;;114879;1208;25396;-59
2022/11/21 07:59:19;;;;;;;;;4.50;4.50;;;;;;;;114952;1200;25557;-60
2022/11/21 08:01:50;;;;;;;;;3.00;3.00;;;;;;;;114866;1200;25402;-59
2022/11/21 08:04:18;;;;;;;;;5.67;4.67;;;;;;;;114946;1200;25290;-59
2022/11/21 08:06:47;;;;;;;;;5.33;4.67;;;;;;;;114899;1200;24923;-59
2022/11/21 08:09:15;;;;;;;;;5.25;4.75;;;;;;;;114938;1204;25120;-61
2022/11/21 08:11:44;;;;;;;;;5.00;4.00;;;;;;;;114910;1206;25715;-61
2022/11/21 08:14:13;;;;;;;;;5.00;4.00;;;;;;;;114931;1208;25272;-59
2022/11/21 08:16:41;;;;;;;;;2.00;1.00;;;;;;;;114928;1203;24824;-60
2022/11/21 08:19:09;;;;;;;;;5.00;4.00;;;;;;;;114958;1208;25577;-62
2022/11/21 08:21:38;;;;;;;;;6.00;4.50;;;;;;;;114927;1200;26226;-63
2022/11/21 08:24:12;;;;;;;;;5.00;5.00;;;;;;;;114779;1207;25069;-62
2022/11/21 08:26:40;;;;;;;;;3.67;3.00;;;;;;;;114905;1200;25442;-62
2022/11/21 08:29:10;;;;;;;;;7.00;5.00;;;;;;;;114893;1206;24872;-70
2022/11/21 08:31:39;;;;;;;;;3.00;3.00;;;;;;;;114851;1203;24877;-68
2022/11/21 08:34:08;;;;;;;;;4.00;4.00;;;;;;;;114852;1200;24987;-63
2022/11/21 08:36:41;;;;;;;;;3.50;2.50;;;;;;;;114793;1206;26282;-61
2022/11/21 08:39:09;;;;;;;;;5.33;4.00;;;;;;;;114903;1200;25291;-60
2022/11/21 08:44:25;;;;;;;;;4.00;4.00;;;;;;;;114899;1207;24835;-59
2022/11/21 08:46:55;;;;;;;;;2.67;2.67;;;;;;;;114938;1200;26456;-60
2022/11/21 08:49:23;;;;;;;;;5.00;2.00;;;;;;;;114932;1206;24983;-61
2022/11/21 08:51:52;;;;;;;;;6.00;6.00;;;;;;;;114917;1200;25750;-61
2022/11/21 08:54:22;;;;;;;;;3.00;3.00;;;;;;;;114943;1203;25629;-59
2022/11/21 08:56:50;;;;;;;;;2.75;2.75;;;;;;;;114961;1199;25554;-60
2022/11/21 08:59:19;;;;;;;;;3.00;3.00;;;;;;;;114883;1206;25206;-61
2022/11/21 09:01:47;;;;;;;;;3.00;3.00;;;;;;;;114918;1203;25244;-62
2022/11/21 09:04:16;;;;;;;;;4.00;4.00;;;;;;;;114926;1207;24777;-60
2022/11/21 09:06:44;;;;;;;;;4.00;4.00;;;;;;;;114921;1200;25338;-60
2022/11/21 09:09:13;;;;;;;;;4.00;3.67;;;;;;;;114995;1203;24664;-62
2022/11/21 09:11:41;;;;;;;;;3.33;3.33;;;;;;;;114907;1200;25415;-68
2022/11/21 09:19:44;;;;;;;;;3.33;3.33;;;;;;;;114956;1203;25076;-62
2022/11/21 09:22:14;;;;;;;;;4.00;4.00;;;;;;;;114914;1206;24794;-62
2022/11/21 09:24:42;;;;;;;;;5.00;3.00;;;;;;;;114978;1202;25534;-61
2022/11/21 09:27:11;;;;;;;;;4.00;3.50;;;;;;;;114903;1203;25283;-62
2022/11/21 09:29:39;;;;;;;;;3.67;3.67;;;;;;;;114922;1206;24674;-63
2022/11/21 09:32:07;;;;;;;;;3.67;3.67;;;;;;;;114946;1206;25018;-61
2022/11/21 09:34:36;;;;;;;;;3.00;2.00;;;;;;;;114922;1199;25497;-62
2022/11/21 09:37:04;;;;;;;;;2.50;2.50;;;;;;;;114817;1201;26030;-61
2022/11/21 09:39:33;;;;;;;;;3.00;2.00;;;;;;;;114786;1198;25451;-61
2022/11/21 09:42:23;;;;;;;;;2.50;2.50;;;;;;;;114865;1196;25209;-62
2022/11/21 09:45:03;;;;;;;;;3.00;3.00;;;;;;;;114874;1208;24804;-62
2022/11/21 09:47:36;;;;;;;;;4.00;3.00;;;;;;;;114872;1204;24843;-62
2022/11/21 09:50:20;;;;;;;;;3.50;3.00;;;;;;;;114850;1208;24668;-61
2022/11/21 09:53:22;;;;;;;;;7.00;3.00;;;;;;;;114839;1200;25497;-61
2022/11/21 09:56:05;;;;;;;;;3.00;3.00;;;;;;;;114719;1208;25151;-59
2022/11/21 09:58:39;;;;;;;;;2.00;2.00;;;;;;;;114862;1208;25570;-64
2022/11/21 10:01:14;;;;;;;;;5.00;3.00;;;;;;;;114955;1197;24885;-64
2022/11/21 10:03:45;;;;;;;;;3.50;2.50;;;;;;;;114929;1199;25810;-62
2022/11/21 10:06:17;;;;;;;;;3.00;3.00;;;;;;;;114876;1200;25191;-62
2022/11/21 10:08:58;;;;;;;;;2.33;2.00;;;;;;;;114866;1208;24975;-62
2022/11/21 10:12:35;;;;;;;;;3.00;3.00;;;;;;;;114936;1201;24929;-63
2022/11/21 10:14:35;;;;;;;;;3.00;3.00;;;;;;;;114893;1194;25409;-62
2022/11/21 10:17:15;;;;;;;;;2.67;2.67;;;;;;;;114904;1208;25473;-62
2022/11/21 10:20:13;;;;;;;;;3.00;2.00;;;;;;;;114852;1200;25412;-63
2022/11/21 10:22:52;;;;;;;;;3.00;3.00;;;;;;;;114747;1203;25026;-62
2022/11/21 10:25:27;;;;;;;;;1.00;1.00;;;;;;;;114875;1205;25209;-63
2022/11/21 10:28:04;;;;;;;;;3.00;3.00;;;;;;;;114808;1196;25493;-64
2022/11/21 10:30:33;;;;;;;;;3.67;3.33;;;;;;;;114844;1208;24856;-64
2022/11/21 10:33:04;;;;;;;;;3.00;3.00;;;;;;;;114905;1200;25546;-64
2022/11/21 10:35:40;;;;;;;;;3.50;2.50;;;;;;;;114914;1200;25218;-64
2022/11/21 10:38:21;;;;;;;;;3.00;3.00;;;;;;;;114845;1197;25229;-64
2022/11/21 10:40:51;;;;;;;;;3.75;0.50;;;;;;;;114910;1206;25572;-63
2022/11/21 10:46:30;;;;;;;;;5.00;3.00;;;;;;;;114851;1208;25482;-63
2022/11/21 10:49:00;;;;;;;;;3.50;3.00;;;;;;;;114933;1203;24652;-63
2022/11/21 10:51:45;;;;;;;;;3.00;3.00;;;;;;;;114917;1200;25217;-63
2022/11/21 10:54:32;;;;;;;;;3.00;2.33;;;;;;;;114937;1203;25404;-64
2022/11/21 10:57:13;;;;;;;;;3.50;3.50;;;;;;;;114899;1204;24765;-63
2022/11/21 10:59:56;;;;;;;;;2.33;2.33;;;;;;;;114926;1200;25032;-64
2022/11/21 11:02:25;;;;;;;;;2.00;2.00;;;;;;;;114980;1203;24999;-62
2022/11/21 11:05:32;;;;;;;;;3.00;3.00;;;;;;;;114922;1203;24763;-64
2022/11/21 11:08:09;;;;;;;;;2.00;2.00;;;;;;;;114572;1203;24953;-60
2022/11/21 11:10:40;;;;;;;;;4.00;4.00;;;;;;;;114852;1208;25205;-61
2022/11/21 11:16:15;;;;;;;;;;;;;;;;;;114895;1206;25541;-62
2022/11/21 11:18:55;;;;;;;;;11.50;7.00;;;;;;;;114862;1203;25584;-60
2022/11/21 11:21:40;;;;;;;;;8.00;4.00;;;;;;;;114853;1199;26224;-61
2022/11/21 11:24:08;;;;;;;;;8.50;7.50;;;;;;;;114851;1202;25503;-58
2022/11/21 11:26:45;;;;;;;;;7.00;7.00;;;;;;;;114961;1200;24828;-58
2022/11/21 11:29:17;;;;;;;;;5.67;4.00;;;;;;;;114870;1196;25486;-57
2022/11/21 11:31:56;;;;;;;;;7.00;5.00;;;;;;;;114831;1200;25052;-57
2022/11/21 11:34:35;;;;;;;;;7.00;5.00;;;;;;;;114919;1203;24998;-57
2022/11/21 11:37:16;;;;;;;;;;;;;;;;;;114929;1199;25662;-59
2022/11/21 11:40:15;;;;;;;;;17.00;11.33;;;;;;;;114899;1200;25485;-59
2022/11/21 11:50:14;;;;;;;;;;;;;;;;;;114639;1203;25041;-61
2022/11/21 11:52:48;;;;;;;;;20.00;17.00;;;;;;;;114586;1201;25664;-60
2022/11/21 11:55:35;;;;;;;;;18.00;13.00;;;;;;;;114877;1208;25151;-62
2022/11/21 11:58:10;;;;;;;;;16.00;12.00;;;;;;;;114902;1203;25042;-61
2022/11/21 12:00:49;;;;;;;;;17.50;17.50;;;;;;;;114890;1206;25217;-58
2022/11/21 12:03:31;;;;;;;;;11.00;8.00;;;;;;;;114836;1200;24897;-60
2022/11/21 12:06:11;;;;;;;;;13.50;11.00;;;;;;;;114888;1204;25482;-61
2022/11/21 12:08:58;;;;;;;;;13.00;10.00;;;;;;;;114930;1201;24914;-61
2022/11/21 12:12:08;;;;;;;;;11.50;10.00;;;;;;;;114941;1203;26348;-58
2022/11/21 12:18:18;;;;;;;;;33.00;16.00;;;;;;;;114909;1207;25089;-59
2022/11/21 12:21:01;;;;;;;;;21.00;16.50;;;;;;;;114892;1198;24997;-58
2022/11/21 12:23:35;;;;;;;;;32.00;18.50;;;;;;;;114911;1196;25271;-60
2022/11/21 12:26:03;;;;;;;;;30.00;22.00;;;;;;;;114906;1199;25499;-65
2022/11/21 12:28:58;;;;;;;;;29.50;21.00;;;;;;;;114901;1208;24794;-59
2022/11/21 12:31:43;;;;;;;;;25.00;19.00;;;;;;;;114915;1200;25135;-61
2022/11/21 12:34:18;;;;;;;;;37.50;22.50;;;;;;;;114870;1208;25653;-61
2022/11/21 12:37:03;;;;;;;;;26.00;19.00;;;;;;;;114860;1197;25319;-60
2022/11/21 12:40:00;;;;;;;;;16.00;6.00;;;;;;;;114837;1200;25472;-65
2022/11/21 12:42:49;;;;;;;;;27.00;19.50;;;;;;;;114866;1200;25511;-65
2022/11/21 12:45:33;;;;;;;;;25.67;15.67;;;;;;;;114860;1200;24883;-65
2022/11/21 12:54:38;;;;;;;;;30.33;17.67;;;;;;;;114823;1203;24944;-69
2022/11/21 12:57:15;;;;;;;;;20.50;14.00;;;;;;;;115051;1203;25224;-70
2022/11/21 13:00:08;;;;;;;;;25.00;19.50;;;;;;;;114880;1198;25136;-70
2022/11/21 13:02:53;;;;;;;;;27.33;17.33;;;;;;;;114828;1208;25163;-67
2022/11/21 13:05:28;;;;;;;;;25.50;15.50;;;;;;;;114902;1203;24731;-67
2022/11/21 13:08:15;;;;;;;;;23.00;15.00;;;;;;;;114884;1200;25272;-68
2022/11/21 13:14:27;;;;;;;;;18.00;16.00;;;;;;;;114959;1198;25513;-68
2022/11/21 13:17:15;;;;;;;;;20.00;16.00;;;;;;;;114964;1208;25338;-67
2022/11/21 13:19:54;;;;;;;;;24.50;15.50;;;;;;;;114963;1200;25472;-68
2022/11/21 13:22:34;;;;;;;;;18.00;13.00;;;;;;;;114919;1203;26213;-69
2022/11/21 13:25:31;;;;;;;;;20.00;14.00;;;;;;;;114915;1203;26230;-68
2022/11/21 13:28:18;;;;;;;;;20.00;15.00;;;;;;;;114859;1200;24868;-67
2022/11/21 13:30:54;;;;;;;;;13.00;9.00;;;;;;;;114900;1202;24665;-69
2022/11/21 13:33:44;;;;;;;;;19.00;15.50;;;;;;;;114904;1197;24978;-68
2022/11/21 13:36:33;;;;;;;;;20.00;17.00;;;;;;;;114925;1200;25284;-67
2022/11/21 13:39:02;;;;;;;;;15.00;14.00;;;;;;;;114934;1197;25471;-68
2022/11/21 13:44:29;;;;;;;;;19.00;13.00;;;;;;;;114863;1204;25484;-70
2022/11/21 13:47:08;;;;;;;;;19.00;15.50;;;;;;;;114880;1207;25056;-68
2022/11/21 13:49:42;;;;;;;;;20.00;17.00;;;;;;;;114917;1203;25565;-68
2022/11/21 13:52:20;;;;;;;;;17.50;13.00;;;;;;;;114937;1208;25375;-68
2022/11/21 13:55:36;;;;;;;;;19.00;13.50;;;;;;;;114888;1203;25273;-68
2022/11/21 13:58:23;;;;;;;;;22.00;15.00;;;;;;;;114923;1207;25613;-68
2022/11/21 14:00:59;;;;;;;;;16.50;15.00;;;;;;;;114894;1203;24891;-65
2022/11/21 14:04:01;;;;;;;;;20.00;13.00;;;;;;;;114943;1208;24760;-62
2022/11/21 14:06:38;;;;;;;;;12.50;9.50;;;;;;;;114872;1206;25469;-62
2022/11/21 14:09:13;;;;;;;;;15.00;14.00;;;;;;;;114888;1193;25592;-61
2022/11/21 14:11:48;;;;;;;;;11.00;11.00;;;;;;;;114905;1204;24823;-62
2022/11/21 14:14:35;;;;;;;;;20.50;13.50;;;;;;;;114858;1198;24935;-59
2022/11/21 14:17:37;;;;;;;;;15.67;12.33;;;;;;;;114930;1208;24967;-61
2022/11/21 14:20:56;;;;;;;;;14.00;12.00;;;;;;;;114935;1199;25407;-60
2022/11/21 14:23:26;;;;;;;;;9.50;8.00;;;;;;;;114813;1206;25407;-61
2022/11/21 14:25:58;;;;;;;;;16.00;15.00;;;;;;;;114931;1200;26169;-62
2022/11/21 14:28:29;;;;;;;;;14.00;10.00;;;;;;;;114878;1200;25598;-63
2022/11/21 14:31:01;;;;;;;;;14.00;10.00;;;;;;;;114880;1203;25030;-64
2022/11/21 14:33:32;;;;;;;;;16.00;11.33;;;;;;;;114880;1196;25463;-64
2022/11/21 14:36:02;;;;;;;;;14.00;10.50;;;;;;;;114877;1194;25479;-64
2022/11/21 14:38:34;;;;;;;;;17.00;13.00;;;;;;;;114925;1200;25495;-65
2022/11/21 14:41:21;;;;;;;;;17.00;12.00;;;;;;;;114933;1200;25656;-61
2022/11/21 14:44:10;;;;;;;;;10.00;5.00;;;;;;;;114948;1203;25164;-61
2022/11/21 14:46:40;;;;;;;;;10.00;9.00;;;;;;;;114869;1204;25629;-60
2022/11/21 14:49:11;;;;;;;;;16.00;11.00;;;;;;;;114890;1203;25054;-62
2022/11/21 14:51:44;;;;;;;;;20.00;11.00;;;;;;;;114910;1203;24688;-64
2022/11/21 14:54:22;;;;;;;;;16.00;9.00;;;;;;;;114847;1200;24980;-62
2022/11/21 14:56:59;;;;;;;;;13.50;12.00;;;;;;;;114867;1206;25444;-61
2022/11/21 14:59:47;;;;;;;;;10.33;7.00;;;;;;;;114870;1203;25190;-60
2022/11/21 15:02:25;;;;;;;;;15.00;13.00;;;;;;;;114892;1200;25464;-63
2022/11/21 15:05:00;;;;;;;;;15.33;12.33;;;;;;;;114867;1200;25433;-62
2022/11/21 15:07:35;;;;;;;;;14.00;14.00;;;;;;;;114825;1200;25047;-61
2022/11/21 15:10:04;;;;;;;;;13.00;11.00;;;;;;;;114799;1200;25490;-62
2022/11/21 15:12:58;;;;;;;;;14.50;12.00;;;;;;;;114910;1204;25634;-62
2022/11/21 15:15:33;;;;;;;;;34.00;16.00;;;;;;;;114894;1204;25342;-62
2022/11/21 15:18:06;;;;;;;;;15.00;11.00;;;;;;;;114944;1200;24928;-63
2022/11/21 15:20:57;;;;;;;;;17.00;12.67;;;;;;;;114922;1200;24820;-65
2022/11/21 15:23:32;;;;;;;;;16.00;10.00;;;;;;;;114817;1203;25035;-69
2022/11/21 15:26:01;;;;;;;;;10.50;9.00;;;;;;;;114902;1203;25514;-67
2022/11/21 15:28:30;;;;;;;;;15.00;12.00;;;;;;;;114895;1203;25370;-68
2022/11/21 15:31:17;;;;;;;;;12.00;9.00;;;;;;;;114900;1200;25257;-66
2022/11/21 15:34:00;;;;;;;;;15.00;8.00;;;;;;;;114868;1198;25333;-63
2022/11/21 15:37:16;;;;;;;;;16.00;7.00;;;;;;;;114939;1203;25327;-61
2022/11/21 15:39:46;;;;;;;;;10.67;9.67;;;;;;;;114841;1203;25556;-63
2022/11/21 15:42:30;;;;;;;;;15.50;10.50;;;;;;;;114850;1206;25098;-64